createdAt,value
2023-06-11T00:02:23.287Z,12.00
2023-06-11T00:04:50.632Z,12.00
2023-06-11T00:07:18.519Z,13.98
2023-06-11T00:09:45.635Z,13.52
2023-06-11T00:12:12.541Z,14.38
2023-06-11T00:14:39.387Z,13.57
2023-06-11T00:17:06.318Z,10.63
2023-06-11T00:19:33.705Z,12.95
2023-06-11T00:22:04.214Z,11.75
2023-06-11T00:24:31.353Z,12.95
2023-06-11T00:27:01.116Z,12.50
2023-06-11T00:29:28.755Z,11.27
2023-06-11T00:31:55.708Z,14.07
2023-06-11T00:34:22.688Z,14.90
2023-06-11T00:36:49.832Z,11.35
2023-06-11T00:39:16.897Z,10.18
2023-06-11T00:41:46.948Z,12.80
2023-06-11T00:44:19.013Z,12.95
2023-06-11T00:46:46.705Z,12.80
2023-06-11T00:49:13.624Z,12.32
2023-06-11T00:51:42.785Z,12.48
2023-06-11T00:54:14.230Z,11.05
2023-06-11T00:56:42.405Z,12.57
2023-06-11T00:59:09.562Z,11.35
2023-06-11T01:01:43.011Z,13.10
2023-06-11T01:04:14.652Z,12.60
2023-06-11T01:06:47.555Z,12.70
2023-06-11T01:09:14.617Z,11.50
2023-06-11T01:11:42.521Z,13.95
2023-06-11T01:14:14.098Z,15.20
2023-06-11T01:16:46.449Z,12.18
2023-06-11T01:19:20.271Z,12.25
2023-06-11T01:21:50.117Z,11.02
2023-06-11T01:24:19.975Z,13.73
2023-06-11T01:27:11.285Z,12.30
2023-06-11T01:29:39.627Z,11.35
2023-06-11T01:32:07.055Z,13.27
2023-06-11T01:34:33.930Z,12.07
2023-06-11T01:37:01.199Z,12.48
2023-06-11T01:39:28.094Z,12.40
2023-06-11T01:41:55.933Z,14.88
2023-06-11T01:44:23.374Z,16.00
2023-06-11T01:46:50.367Z,13.90
2023-06-11T01:49:18.232Z,13.80
2023-06-11T01:51:45.074Z,12.02
2023-06-11T01:54:12.116Z,12.90
2023-06-11T01:56:38.976Z,15.02
2023-06-11T01:59:05.879Z,15.32
2023-06-11T02:01:34.163Z,14.90
2023-06-11T02:04:01.158Z,14.60
2023-06-11T02:06:28.182Z,15.63
2023-06-11T02:08:55.052Z,15.32
2023-06-11T02:11:22.045Z,14.23
2023-06-11T02:13:48.884Z,15.85
2023-06-11T02:16:15.725Z,15.15
2023-06-11T02:18:42.763Z,15.25
2023-06-11T02:21:09.611Z,15.00
2023-06-11T02:23:36.428Z,14.30
2023-06-11T02:26:03.265Z,16.95
2023-06-11T02:28:30.115Z,13.65
2023-06-11T02:30:56.933Z,16.10
2023-06-11T02:33:23.786Z,16.98
2023-06-11T02:35:50.737Z,15.32
2023-06-11T02:38:17.622Z,15.45
2023-06-11T02:40:44.517Z,15.43
2023-06-11T02:43:11.425Z,16.95
2023-06-11T02:45:38.279Z,16.52
2023-06-11T02:48:06.395Z,12.95
2023-06-11T02:50:33.346Z,13.18
2023-06-11T02:53:00.308Z,15.55
2023-06-11T02:55:27.165Z,17.10
2023-06-11T02:57:53.995Z,15.77
2023-06-11T03:00:20.913Z,16.83
2023-06-11T03:02:47.822Z,16.17
2023-06-11T03:05:15.219Z,13.60
2023-06-11T03:07:42.150Z,14.38
2023-06-11T03:10:09.096Z,16.80
2023-06-11T03:12:36.000Z,14.15
2023-06-11T03:15:03.589Z,13.55
2023-06-11T03:17:30.437Z,18.17
2023-06-11T03:19:57.335Z,14.13
2023-06-11T03:22:24.161Z,15.25
2023-06-11T03:24:50.984Z,16.17
2023-06-11T03:27:17.953Z,14.68
2023-06-11T03:29:44.738Z,14.23
2023-06-11T03:32:13.248Z,15.95
2023-06-11T03:34:40.399Z,12.90
2023-06-11T03:37:07.311Z,12.63
2023-06-11T03:39:34.124Z,17.42
2023-06-11T03:42:00.982Z,14.13
2023-06-11T03:44:27.897Z,14.55
2023-06-11T03:46:54.862Z,14.77
2023-06-11T03:49:21.748Z,16.45
2023-06-11T03:51:48.677Z,14.05
2023-06-11T03:54:15.503Z,15.52
2023-06-11T03:56:42.350Z,14.32
2023-06-11T03:59:09.469Z,14.32
2023-06-11T04:01:36.377Z,16.27
2023-06-11T04:04:03.613Z,14.65
2023-06-11T04:06:30.774Z,14.65
2023-06-11T04:08:57.597Z,15.48
2023-06-11T04:11:24.449Z,15.13
2023-06-11T04:13:51.921Z,14.50
2023-06-11T04:16:18.851Z,14.90
2023-06-11T04:18:46.024Z,15.98
2023-06-11T04:21:12.991Z,16.65
2023-06-11T04:23:39.873Z,16.27
2023-06-11T04:26:09.226Z,16.50
2023-06-11T04:28:37.278Z,15.40
2023-06-11T04:31:05.539Z,17.38
2023-06-11T04:33:37.548Z,17.00
2023-06-11T04:36:11.338Z,16.33
2023-06-11T04:38:38.678Z,17.52
2023-06-11T04:41:12.287Z,15.15
2023-06-11T04:43:39.771Z,15.57
2023-06-11T04:46:07.804Z,14.38
2023-06-11T04:48:34.757Z,15.85
2023-06-11T04:51:02.180Z,14.77
2023-06-11T04:53:30.227Z,15.88
2023-06-11T04:55:57.723Z,14.68
2023-06-11T04:58:25.370Z,14.43
2023-06-11T05:00:52.616Z,14.73
2023-06-11T05:03:20.137Z,14.63
2023-06-11T05:05:52.292Z,14.82
2023-06-11T05:08:19.794Z,16.25
2023-06-11T05:10:46.689Z,15.52
2023-06-11T05:13:13.515Z,14.20
2023-06-11T05:15:40.620Z,17.25
2023-06-11T05:18:07.589Z,17.52
2023-06-11T05:20:34.529Z,14.38
2023-06-11T05:23:03.834Z,15.95
2023-06-11T05:25:30.696Z,13.75
2023-06-11T05:28:01.912Z,15.23
2023-06-11T05:30:30.365Z,16.05
2023-06-11T05:32:57.836Z,17.30
2023-06-11T05:35:24.789Z,17.00
2023-06-11T05:37:51.636Z,16.17
2023-06-11T05:40:18.716Z,14.88
2023-06-11T05:42:45.597Z,15.80
2023-06-11T05:45:12.709Z,18.42
2023-06-11T05:47:39.964Z,17.92
2023-06-11T05:50:07.596Z,14.07
2023-06-11T05:52:34.583Z,13.55
2023-06-11T05:55:01.520Z,15.27
2023-06-11T05:57:28.726Z,14.52
2023-06-11T05:59:55.652Z,18.00
2023-06-11T06:02:22.870Z,14.95
2023-06-11T06:04:50.315Z,17.33
2023-06-11T06:07:17.553Z,16.77
2023-06-11T06:09:44.620Z,15.18
2023-06-11T06:12:11.719Z,16.30
2023-06-11T06:14:38.581Z,15.30
2023-06-11T06:17:06.358Z,13.45
2023-06-11T06:19:33.179Z,15.35
2023-06-11T06:22:00.056Z,16.80
2023-06-11T06:24:26.914Z,17.00
2023-06-11T06:26:57.705Z,13.40
2023-06-11T06:29:24.776Z,15.43
2023-06-11T06:31:51.786Z,15.40
2023-06-11T06:34:18.702Z,18.48
2023-06-11T06:36:46.367Z,16.42
2023-06-11T06:39:13.380Z,11.82
2023-06-11T06:41:40.234Z,14.65
2023-06-11T06:44:07.105Z,13.95
2023-06-11T06:46:33.977Z,15.93
2023-06-11T06:49:00.890Z,18.23
2023-06-11T06:51:28.592Z,15.43
2023-06-11T06:53:55.633Z,18.15
2023-06-11T06:56:23.201Z,16.60
2023-06-11T06:58:50.164Z,16.10
2023-06-11T07:01:17.126Z,14.65
2023-06-11T07:03:44.064Z,14.93
2023-06-11T07:06:11.185Z,14.25
2023-06-11T07:08:39.351Z,17.75
2023-06-11T07:11:06.719Z,16.38
2023-06-11T07:13:33.590Z,15.88
2023-06-11T07:16:00.422Z,13.82
2023-06-11T07:18:29.041Z,16.27
2023-06-11T07:20:56.016Z,14.43
2023-06-11T07:23:23.126Z,12.38
2023-06-11T07:25:51.231Z,13.32
2023-06-11T07:28:18.110Z,16.30
2023-06-11T07:30:45.291Z,16.10
2023-06-11T07:33:12.338Z,15.52
2023-06-11T07:35:39.346Z,12.45
2023-06-11T07:38:06.341Z,12.95
2023-06-11T07:40:33.247Z,13.90
2023-06-11T07:43:00.057Z,12.52
2023-06-11T07:45:26.958Z,15.05
2023-06-11T07:47:53.840Z,15.43
2023-06-11T07:50:20.883Z,13.48
2023-06-11T07:52:47.746Z,11.63
2023-06-11T07:55:14.658Z,12.27
2023-06-11T07:57:41.604Z,15.25
2023-06-11T08:00:14.469Z,12.63
2023-06-11T08:02:42.327Z,11.68
2023-06-11T08:05:11.404Z,15.82
2023-06-11T08:07:38.740Z,13.73
2023-06-11T08:10:06.320Z,11.25
2023-06-11T08:12:33.209Z,12.73
2023-06-11T08:15:00.059Z,14.70
2023-06-11T08:17:26.938Z,11.75
2023-06-11T08:19:54.259Z,13.55
2023-06-11T08:22:21.324Z,14.77
2023-06-11T08:24:48.190Z,11.27
2023-06-11T08:27:15.177Z,13.10
2023-06-11T08:29:42.577Z,13.30
2023-06-11T08:32:09.574Z,12.98
2023-06-11T08:34:36.479Z,14.25
2023-06-11T08:37:04.725Z,12.80
2023-06-11T08:39:31.700Z,13.80
2023-06-11T08:41:58.639Z,13.88
2023-06-11T08:44:27.354Z,12.43
2023-06-11T08:46:55.576Z,14.70
2023-06-11T08:49:23.465Z,13.82
2023-06-11T08:51:50.850Z,13.88
2023-06-11T08:54:18.088Z,11.48
2023-06-11T08:56:45.067Z,11.32
2023-06-11T08:59:11.972Z,13.80
2023-06-11T09:01:39.699Z,14.77
2023-06-11T09:04:07.289Z,14.15
2023-06-11T09:06:35.612Z,11.57
2023-06-11T09:09:04.535Z,14.20
2023-06-11T09:11:32.206Z,13.25
2023-06-11T09:13:59.258Z,12.80
2023-06-11T09:16:26.289Z,13.02
2023-06-11T09:18:54.782Z,13.60
2023-06-11T09:21:23.501Z,15.20
2023-06-11T09:23:50.892Z,14.13
2023-06-11T09:26:18.663Z,15.05
2023-06-11T09:28:50.289Z,13.38
2023-06-11T09:31:19.332Z,14.57
2023-06-11T09:33:46.291Z,11.45
2023-06-11T09:36:13.186Z,13.32
2023-06-11T09:38:40.100Z,16.63
2023-06-11T09:41:08.185Z,11.10
2023-06-11T09:43:35.936Z,13.65
2023-06-11T09:46:03.460Z,12.43
2023-06-11T09:48:30.863Z,14.48
2023-06-11T09:50:58.901Z,13.18
2023-06-11T09:53:25.786Z,13.25
2023-06-11T09:58:25.875Z,11.80
2023-06-11T10:00:59.673Z,11.57
2023-06-11T10:03:26.627Z,14.82
2023-06-11T10:05:53.778Z,13.07
2023-06-11T10:08:23.108Z,14.77
2023-06-11T10:10:52.742Z,10.82
2023-06-11T10:13:32.534Z,13.85
2023-06-11T10:16:02.977Z,13.73
2023-06-11T10:18:31.428Z,13.40
2023-06-11T10:21:04.900Z,12.27
2023-06-11T10:23:40.763Z,15.13
2023-06-11T10:26:08.418Z,12.25
2023-06-11T10:28:53.617Z,13.20
2023-06-11T10:31:27.138Z,13.90
2023-06-11T10:34:01.048Z,12.98
2023-06-11T10:36:33.545Z,13.63
2023-06-11T10:39:07.440Z,12.88
2023-06-11T10:41:37.240Z,14.82
2023-06-11T10:44:04.254Z,11.18
2023-06-11T10:46:31.267Z,14.63
2023-06-11T10:48:58.326Z,14.55
2023-06-11T10:51:25.230Z,15.43
2023-06-11T10:53:59.435Z,12.63
2023-06-11T10:56:27.470Z,11.98
2023-06-11T10:58:55.226Z,11.30
2023-06-11T11:01:22.607Z,11.45
2023-06-11T11:03:53.827Z,13.13
2023-06-11T11:06:28.140Z,11.60
2023-06-11T11:08:56.715Z,14.88
2023-06-11T11:11:24.214Z,11.88
2023-06-11T11:13:51.614Z,11.75
2023-06-11T11:16:20.149Z,11.50
2023-06-11T11:18:48.061Z,10.40
2023-06-11T11:21:16.222Z,11.60
2023-06-11T11:23:43.483Z,15.27
2023-06-11T11:26:11.598Z,14.95
2023-06-11T11:28:38.556Z,13.07
2023-06-11T11:31:05.621Z,14.07
2023-06-11T11:33:34.484Z,13.40
2023-06-11T11:36:03.228Z,13.10
2023-06-11T11:38:34.030Z,13.85
2023-06-11T11:41:01.083Z,11.52
2023-06-11T11:43:36.597Z,12.13
2023-06-11T11:46:03.576Z,11.70
2023-06-11T11:48:32.040Z,13.50
2023-06-11T11:51:07.397Z,12.38
2023-06-11T11:53:34.353Z,14.80
2023-06-11T11:56:06.440Z,15.50
2023-06-11T11:58:38.553Z,12.13
2023-06-11T12:01:05.948Z,12.57
2023-06-11T12:03:33.111Z,12.88
2023-06-11T12:06:04.208Z,14.85
2023-06-11T12:08:31.748Z,13.75
2023-06-11T12:10:59.067Z,14.25
2023-06-11T12:13:26.362Z,12.93
2023-06-11T12:15:53.465Z,13.35
2023-06-11T12:18:21.006Z,13.80
2023-06-11T12:20:48.548Z,12.45
2023-06-11T12:23:15.771Z,13.52
2023-06-11T12:25:43.779Z,13.15
2023-06-11T12:28:10.751Z,14.30
2023-06-11T12:30:37.738Z,14.98
2023-06-11T12:33:04.786Z,17.65
2023-06-11T12:35:31.838Z,13.23
2023-06-11T12:37:58.730Z,16.02
2023-06-11T12:40:25.909Z,12.65
2023-06-11T12:42:57.998Z,12.90
2023-06-11T12:45:29.046Z,11.80
2023-06-11T12:50:27.011Z,13.15
2023-06-11T12:52:55.029Z,12.23
2023-06-11T12:55:22.098Z,12.02
2023-06-11T12:57:49.921Z,12.45
2023-06-11T13:00:17.220Z,12.02
2023-06-11T13:02:45.255Z,12.57
2023-06-11T13:05:12.502Z,17.23
2023-06-11T13:07:39.407Z,14.63
2023-06-11T13:10:06.575Z,12.52
2023-06-11T13:12:33.645Z,11.50
2023-06-11T13:15:00.770Z,12.48
2023-06-11T13:17:28.116Z,11.52
2023-06-11T13:19:58.478Z,11.82
2023-06-11T13:22:25.491Z,14.15
2023-06-11T13:24:52.878Z,12.05
2023-06-11T13:27:19.783Z,14.63
2023-06-11T13:29:46.698Z,12.30
2023-06-11T13:32:13.601Z,15.55
2023-06-11T13:34:40.569Z,17.08
2023-06-11T13:37:07.543Z,12.48
2023-06-11T13:39:34.544Z,14.90
2023-06-11T13:42:01.631Z,10.82
2023-06-11T13:44:28.668Z,10.65
2023-06-11T13:46:55.887Z,14.43
2023-06-11T13:49:24.622Z,15.68
2023-06-11T13:51:53.178Z,10.18
2023-06-11T13:54:20.356Z,11.40
2023-06-11T13:56:47.245Z,10.50
2023-06-11T13:59:14.203Z,12.98
2023-06-11T14:01:41.092Z,12.43
2023-06-11T14:04:09.051Z,11.23
2023-06-11T14:06:37.786Z,10.98
2023-06-11T14:09:05.421Z,9.48
2023-06-11T14:11:32.570Z,11.85
2023-06-11T14:14:00.447Z,11.60
2023-06-11T14:16:28.035Z,11.75
2023-06-11T14:18:55.041Z,11.85
2023-06-11T14:21:22.036Z,10.60
2023-06-11T14:23:49.049Z,11.45
2023-06-11T14:26:15.983Z,13.05
2023-06-11T14:28:42.867Z,13.13
2023-06-11T14:31:09.829Z,11.95
2023-06-11T14:33:36.722Z,11.77
2023-06-11T14:36:06.237Z,13.43
2023-06-11T14:38:33.768Z,14.70
2023-06-11T14:41:00.676Z,16.13
2023-06-11T14:43:27.613Z,14.93
2023-06-11T14:45:54.618Z,13.75
2023-06-11T14:48:21.451Z,10.23
2023-06-11T14:50:48.369Z,10.95
2023-06-11T14:53:15.270Z,11.32
2023-06-11T14:55:42.200Z,10.25
2023-06-11T14:58:09.112Z,18.55
2023-06-11T15:00:35.974Z,14.73
2023-06-11T15:03:03.059Z,12.45
2023-06-11T15:05:30.005Z,9.57
2023-06-11T15:07:57.022Z,9.15
2023-06-11T15:10:25.266Z,7.60
2023-06-11T15:12:52.249Z,7.68
2023-06-11T15:15:19.301Z,9.07
2023-06-11T15:17:46.257Z,8.90
2023-06-11T15:20:13.323Z,9.60
2023-06-11T15:22:41.850Z,8.43
2023-06-11T15:25:10.449Z,7.57
2023-06-11T15:27:37.638Z,9.13
2023-06-11T15:30:05.242Z,9.00
2023-06-11T15:32:32.314Z,8.05
2023-06-11T15:34:59.534Z,7.38
2023-06-11T15:37:26.418Z,7.15
2023-06-11T15:39:53.466Z,7.40
2023-06-11T15:42:20.562Z,11.02
2023-06-11T15:44:49.792Z,7.15
2023-06-11T15:47:17.620Z,6.25
2023-06-11T15:49:44.577Z,9.35
2023-06-11T15:52:11.535Z,6.15
2023-06-11T15:54:38.630Z,6.85
2023-06-11T15:57:07.348Z,8.63
2023-06-11T15:59:34.543Z,6.10
2023-06-11T16:02:02.349Z,6.20
2023-06-11T16:04:31.294Z,9.55
2023-06-11T16:07:01.266Z,8.20
2023-06-11T16:09:28.718Z,7.68
2023-06-11T16:11:55.719Z,9.98
2023-06-11T16:14:22.586Z,10.10
2023-06-11T16:16:49.519Z,11.40
2023-06-11T16:19:16.663Z,10.10
2023-06-11T16:21:43.499Z,12.13
2023-06-11T16:24:10.622Z,11.07
2023-06-11T16:26:37.688Z,9.65
2023-06-11T16:29:04.565Z,10.25
2023-06-11T16:31:31.510Z,11.40
2023-06-11T16:33:59.674Z,9.55
2023-06-11T16:36:27.096Z,11.05
2023-06-11T16:38:54.099Z,11.13
2023-06-11T16:41:22.225Z,10.93
2023-06-11T16:43:49.767Z,10.48
2023-06-11T16:46:17.308Z,9.57
2023-06-11T16:48:44.346Z,9.30
2023-06-11T16:51:11.243Z,8.68
2023-06-11T16:53:38.141Z,7.97
2023-06-11T16:56:05.124Z,8.10
2023-06-11T16:58:32.376Z,8.10
2023-06-11T17:00:59.261Z,8.93
2023-06-11T17:03:26.380Z,8.38
2023-06-11T17:05:53.421Z,10.73
2023-06-11T17:08:20.726Z,9.50
2023-06-11T17:10:47.694Z,10.07
2023-06-11T17:13:14.573Z,7.72
2023-06-11T17:15:41.535Z,9.00
2023-06-11T17:18:08.556Z,7.95
2023-06-11T17:20:36.778Z,6.82
2023-06-11T17:23:03.901Z,6.90
2023-06-11T17:25:30.869Z,8.52
2023-06-11T17:27:57.759Z,7.13
2023-06-11T17:30:24.834Z,7.47
2023-06-11T17:32:51.849Z,7.82
2023-06-11T17:35:18.829Z,7.75
2023-06-11T17:37:45.729Z,8.00
2023-06-11T17:40:16.365Z,8.30
2023-06-11T17:42:45.032Z,8.05
2023-06-11T17:45:12.144Z,7.82
2023-06-11T17:47:39.029Z,7.50
2023-06-11T17:50:06.292Z,8.45
2023-06-11T17:52:33.252Z,8.05
2023-06-11T17:55:00.252Z,8.13
2023-06-11T17:57:27.131Z,9.02
2023-06-11T17:59:53.988Z,8.10
2023-06-11T18:02:20.937Z,10.23
2023-06-11T18:04:47.801Z,9.82
2023-06-11T18:07:14.697Z,9.88
2023-06-11T18:09:41.566Z,8.35
2023-06-11T18:12:08.859Z,8.20
2023-06-11T18:14:35.771Z,7.53
2023-06-11T18:17:02.711Z,7.80
2023-06-11T18:19:29.587Z,8.48
2023-06-11T18:21:56.403Z,8.30
2023-06-11T18:24:23.638Z,7.15
2023-06-11T18:26:50.542Z,8.55
2023-06-11T18:29:17.433Z,8.05
2023-06-11T20:26:17.840Z,8.45
2023-06-11T20:28:45.006Z,9.25
2023-06-11T20:31:11.884Z,12.15
2023-06-11T20:33:38.848Z,10.55
2023-06-11T20:36:05.933Z,12.32
2023-06-11T20:38:32.768Z,9.82
2023-06-11T20:40:59.752Z,10.55
2023-06-11T20:43:26.709Z,10.40
2023-06-11T20:45:58.089Z,11.95
2023-06-11T20:48:25.377Z,9.68
2023-06-11T20:50:52.787Z,10.20
2023-06-11T20:53:33.233Z,10.82
2023-06-11T20:56:02.657Z,11.18
2023-06-11T20:58:29.587Z,10.23
2023-06-11T21:00:56.458Z,13.45
2023-06-11T21:03:23.650Z,16.17
2023-06-11T21:05:55.402Z,12.73
2023-06-11T21:08:22.407Z,13.40
2023-06-11T21:10:49.303Z,14.15
2023-06-11T21:13:16.386Z,13.88
2023-06-11T21:15:43.434Z,9.85
2023-06-11T21:18:10.693Z,11.27
2023-06-11T21:20:39.418Z,11.25
2023-06-11T21:23:06.847Z,11.23
2023-06-11T21:25:33.867Z,9.98
2023-06-11T21:28:00.964Z,11.80
2023-06-11T21:30:27.933Z,12.43
2023-06-11T21:32:54.882Z,10.88
2023-06-11T21:35:21.802Z,10.48
2023-06-11T21:37:48.697Z,12.30
2023-06-11T21:40:15.733Z,11.82
2023-06-11T21:42:42.932Z,12.68
2023-06-11T21:45:10.125Z,13.50
2023-06-11T21:47:37.037Z,11.27
2023-06-11T21:50:06.778Z,10.65
2023-06-11T21:52:34.500Z,11.00
2023-06-11T21:55:02.073Z,11.65
2023-06-11T21:57:29.371Z,11.00
2023-06-11T21:59:56.359Z,12.15
2023-06-11T22:02:23.336Z,12.25
2023-06-11T22:04:50.356Z,13.38
2023-06-11T22:07:18.950Z,11.93
2023-06-11T22:09:45.968Z,11.85
2023-06-11T22:12:12.880Z,10.68
2023-06-11T22:14:41.254Z,10.95
2023-06-11T22:17:08.840Z,11.48
2023-06-11T22:19:39.804Z,11.90
2023-06-11T22:22:11.846Z,10.85
2023-06-11T22:24:39.355Z,11.20
2023-06-11T22:27:07.172Z,10.52
2023-06-11T22:29:34.310Z,12.80
2023-06-11T22:32:01.409Z,10.63
2023-06-11T22:34:28.313Z,11.45
2023-06-11T22:36:55.153Z,11.35
2023-06-11T22:39:22.036Z,12.30
2023-06-11T22:41:48.946Z,11.35
2023-06-11T22:44:15.788Z,10.60
2023-06-11T22:46:42.697Z,11.52
2023-06-11T22:49:10.708Z,13.13
2023-06-11T22:51:37.762Z,10.70
2023-06-11T22:54:06.615Z,11.35
2023-06-11T22:56:33.681Z,10.10
2023-06-11T22:59:00.582Z,14.32
2023-06-11T23:01:28.497Z,12.50
2023-06-11T23:03:55.607Z,10.50
2023-06-11T23:06:23.406Z,13.80
2023-06-11T23:08:50.338Z,12.98
2023-06-11T23:11:17.204Z,13.23
2023-06-11T23:13:44.094Z,12.68
2023-06-11T23:16:11.570Z,11.00
2023-06-11T23:18:38.439Z,12.60
2023-06-11T23:21:05.637Z,11.38
2023-06-11T23:23:38.611Z,10.27
2023-06-11T23:26:10.502Z,10.13
2023-06-11T23:28:38.070Z,11.02
2023-06-11T23:31:04.940Z,11.13
2023-06-11T23:33:32.085Z,11.52
2023-06-11T23:35:59.931Z,11.10
2023-06-11T23:38:27.282Z,13.00
2023-06-11T23:40:54.317Z,11.68
2023-06-11T23:43:21.254Z,11.15
2023-06-11T23:45:48.268Z,12.20
2023-06-11T23:48:15.190Z,10.70
2023-06-11T23:50:43.265Z,10.98
2023-06-11T23:53:10.724Z,10.82
2023-06-11T23:55:37.567Z,10.40
2023-06-11T23:58:13.577Z,12.05
